sensor_id;sensor_type;location;lat;lon;timestamp;temperature;humidity
15156;DHT22;7678;50.058;8.306;2022-10-03T00:01:57;9.80;99.90
15156;DHT22;7678;50.058;8.306;2022-10-03T00:04:42;9.70;99.90
15156;DHT22;7678;50.058;8.306;2022-10-03T00:07:25;9.70;99.90
15156;DHT22;7678;50.058;8.306;2022-10-03T00:10:05;9.70;99.90
15156;DHT22;7678;50.058;8.306;2022-10-03T00:12:45;9.50;99.90
15156;DHT22;7678;50.058;8.306;2022-10-03T00:15:20;9.50;99.90
15156;DHT22;7678;50.058;8.306;2022-10-03T00:18:01;9.40;99.90
15156;DHT22;7678;50.058;8.306;2022-10-03T00:20:50;9.50;99.90
15156;DHT22;7678;50.058;8.306;2022-10-03T00:23:26;9.50;99.90
15156;DHT22;7678;50.058;8.306;2022-10-03T00:26:04;9.40;99.90
15156;DHT22;7678;50.058;8.306;2022-10-03T00:28:54;9.40;99.90
15156;DHT22;7678;50.058;8.306;2022-10-03T00:31:37;9.30;99.90
15156;DHT22;7678;50.058;8.306;2022-10-03T00:34:19;9.30;99.90
15156;DHT22;7678;50.058;8.306;2022-10-03T00:36:59;9.20;99.90
15156;DHT22;7678;50.058;8.306;2022-10-03T00:39:47;9.30;99.90
15156;DHT22;7678;50.058;8.306;2022-10-03T00:52:02;9.10;99.90
15156;DHT22;7678;50.058;8.306;2022-10-03T01:05:48;9.30;99.90
15156;DHT22;7678;50.058;8.306;2022-10-03T01:09:02;9.30;99.90
15156;DHT22;7678;50.058;8.306;2022-10-03T01:11:41;9.10;99.90
15156;DHT22;7678;50.058;8.306;2022-10-03T01:14:34;9.00;99.90
15156;DHT22;7678;50.058;8.306;2022-10-03T01:17:11;9.00;99.90
15156;DHT22;7678;50.058;8.306;2022-10-03T01:26:57;9.00;99.90
15156;DHT22;7678;50.058;8.306;2022-10-03T01:41:04;8.90;99.90
15156;DHT22;7678;50.058;8.306;2022-10-03T01:43:43;9.00;99.90
15156;DHT22;7678;50.058;8.306;2022-10-03T01:46:17;8.90;99.90
15156;DHT22;7678;50.058;8.306;2022-10-03T01:48:54;8.80;99.90
15156;DHT22;7678;50.058;8.306;2022-10-03T02:03:26;8.50;99.90
15156;DHT22;7678;50.058;8.306;2022-10-03T02:06:02;8.50;99.90
15156;DHT22;7678;50.058;8.306;2022-10-03T02:08:47;8.60;99.90
15156;DHT22;7678;50.058;8.306;2022-10-03T02:11:27;8.70;99.90
15156;DHT22;7678;50.058;8.306;2022-10-03T02:14:21;8.80;99.90
15156;DHT22;7678;50.058;8.306;2022-10-03T02:17:04;8.80;99.90
15156;DHT22;7678;50.058;8.306;2022-10-03T02:19:44;8.90;99.90
15156;DHT22;7678;50.058;8.306;2022-10-03T02:22:32;9.00;99.90
15156;DHT22;7678;50.058;8.306;2022-10-03T02:28:27;9.10;99.90
15156;DHT22;7678;50.058;8.306;2022-10-03T02:35:08;9.20;99.90
15156;DHT22;7678;50.058;8.306;2022-10-03T02:38:08;9.10;99.90
15156;DHT22;7678;50.058;8.306;2022-10-03T02:44:36;8.90;99.90
15156;DHT22;7678;50.058;8.306;2022-10-03T03:12:27;8.70;99.90
15156;DHT22;7678;50.058;8.306;2022-10-03T03:18:28;8.80;99.90
15156;DHT22;7678;50.058;8.306;2022-10-03T03:21:09;8.70;99.90
15156;DHT22;7678;50.058;8.306;2022-10-03T03:34:58;9.00;99.90
15156;DHT22;7678;50.058;8.306;2022-10-03T03:38:05;9.10;99.90
15156;DHT22;7678;50.058;8.306;2022-10-03T03:41:09;9.10;99.90
15156;DHT22;7678;50.058;8.306;2022-10-03T03:44:46;9.00;99.90
15156;DHT22;7678;50.058;8.306;2022-10-03T03:52:04;8.90;99.90
15156;DHT22;7678;50.058;8.306;2022-10-03T03:59:20;8.90;99.90
15156;DHT22;7678;50.058;8.306;2022-10-03T04:02:37;9.10;99.90
15156;DHT22;7678;50.058;8.306;2022-10-03T04:09:08;9.30;99.90
15156;DHT22;7678;50.058;8.306;2022-10-03T04:12:19;9.20;99.90
15156;DHT22;7678;50.058;8.306;2022-10-03T04:15:29;9.10;99.90
15156;DHT22;7678;50.058;8.306;2022-10-03T04:50:03;9.30;99.90
15156;DHT22;7678;50.058;8.306;2022-10-03T05:19:41;9.10;99.90
15156;DHT22;7678;50.058;8.306;2022-10-03T05:22:20;9.10;99.90
15156;DHT22;7678;50.058;8.306;2022-10-03T05:24:57;9.20;99.90
15156;DHT22;7678;50.058;8.306;2022-10-03T05:27:34;9.20;99.90
15156;DHT22;7678;50.058;8.306;2022-10-03T05:30:07;9.20;99.90
15156;DHT22;7678;50.058;8.306;2022-10-03T05:32:40;9.20;99.90
15156;DHT22;7678;50.058;8.306;2022-10-03T05:35:30;9.30;99.90
15156;DHT22;7678;50.058;8.306;2022-10-03T05:41:10;9.30;99.90
15156;DHT22;7678;50.058;8.306;2022-10-03T05:43:57;9.30;99.90
15156;DHT22;7678;50.058;8.306;2022-10-03T05:54:43;9.30;99.90
15156;DHT22;7678;50.058;8.306;2022-10-03T06:00:19;9.40;99.90
15156;DHT22;7678;50.058;8.306;2022-10-03T06:14:21;9.50;99.90
15156;DHT22;7678;50.058;8.306;2022-10-03T06:17:52;9.60;99.90
15156;DHT22;7678;50.058;8.306;2022-10-03T06:20:56;9.70;99.90
15156;DHT22;7678;50.058;8.306;2022-10-03T06:23:46;9.70;99.90
15156;DHT22;7678;50.058;8.306;2022-10-03T06:29:50;9.90;99.90
15156;DHT22;7678;50.058;8.306;2022-10-03T06:45:39;10.10;99.90
15156;DHT22;7678;50.058;8.306;2022-10-03T06:48:23;9.90;99.90
15156;DHT22;7678;50.058;8.306;2022-10-03T06:51:12;10.10;99.90
15156;DHT22;7678;50.058;8.306;2022-10-03T06:54:04;10.00;99.90
15156;DHT22;7678;50.058;8.306;2022-10-03T06:56:55;10.10;99.90
15156;DHT22;7678;50.058;8.306;2022-10-03T06:59:52;10.10;99.90
15156;DHT22;7678;50.058;8.306;2022-10-03T07:02:55;10.20;99.90
15156;DHT22;7678;50.058;8.306;2022-10-03T07:15:57;10.20;99.90
15156;DHT22;7678;50.058;8.306;2022-10-03T07:22:35;10.40;99.90
15156;DHT22;7678;50.058;8.306;2022-10-03T07:25:31;10.40;99.90
15156;DHT22;7678;50.058;8.306;2022-10-03T07:31:38;10.50;99.90
15156;DHT22;7678;50.058;8.306;2022-10-03T07:34:31;10.50;99.90
15156;DHT22;7678;50.058;8.306;2022-10-03T07:37:18;10.80;99.90
15156;DHT22;7678;50.058;8.306;2022-10-03T07:40:29;10.80;99.90
15156;DHT22;7678;50.058;8.306;2022-10-03T07:43:28;11.00;99.90
15156;DHT22;7678;50.058;8.306;2022-10-03T07:46:26;11.00;99.90
15156;DHT22;7678;50.058;8.306;2022-10-03T07:49:21;11.10;99.90
15156;DHT22;7678;50.058;8.306;2022-10-03T07:52:11;10.90;99.90
15156;DHT22;7678;50.058;8.306;2022-10-03T07:58:13;10.90;99.90
15156;DHT22;7678;50.058;8.306;2022-10-03T08:01:05;11.10;99.90
15156;DHT22;7678;50.058;8.306;2022-10-03T08:04:03;11.10;99.90
15156;DHT22;7678;50.058;8.306;2022-10-03T08:06:43;11.20;99.90
15156;DHT22;7678;50.058;8.306;2022-10-03T08:09:27;11.10;99.90
15156;DHT22;7678;50.058;8.306;2022-10-03T08:15:12;11.20;99.90
15156;DHT22;7678;50.058;8.306;2022-10-03T08:18:25;11.10;99.90
15156;DHT22;7678;50.058;8.306;2022-10-03T08:21:02;11.30;99.90
15156;DHT22;7678;50.058;8.306;2022-10-03T08:24:07;11.50;99.90
15156;DHT22;7678;50.058;8.306;2022-10-03T08:26:59;11.70;99.90
15156;DHT22;7678;50.058;8.306;2022-10-03T08:29:52;11.60;99.90
15156;DHT22;7678;50.058;8.306;2022-10-03T08:35:58;11.80;99.90
15156;DHT22;7678;50.058;8.306;2022-10-03T08:38:49;11.90;99.90
15156;DHT22;7678;50.058;8.306;2022-10-03T08:47:48;12.40;99.90
15156;DHT22;7678;50.058;8.306;2022-10-03T08:53:56;12.30;99.90
15156;DHT22;7678;50.058;8.306;2022-10-03T08:56:55;12.20;99.90
15156;DHT22;7678;50.058;8.306;2022-10-03T09:00:01;12.20;99.90
15156;DHT22;7678;50.058;8.306;2022-10-03T09:09:31;12.30;99.90
15156;DHT22;7678;50.058;8.306;2022-10-03T09:12:35;12.20;99.90
15156;DHT22;7678;50.058;8.306;2022-10-03T09:18:21;12.40;99.90
15156;DHT22;7678;50.058;8.306;2022-10-03T09:27:27;12.60;99.90
15156;DHT22;7678;50.058;8.306;2022-10-03T09:30:29;12.70;99.90
15156;DHT22;7678;50.058;8.306;2022-10-03T09:33:35;12.90;99.90
15156;DHT22;7678;50.058;8.306;2022-10-03T09:42:43;13.40;99.90
15156;DHT22;7678;50.058;8.306;2022-10-03T09:45:32;13.60;99.90
15156;DHT22;7678;50.058;8.306;2022-10-03T09:48:23;13.60;99.90
15156;DHT22;7678;50.058;8.306;2022-10-03T09:51:13;13.70;99.90
15156;DHT22;7678;50.058;8.306;2022-10-03T09:54:16;13.50;99.90
15156;DHT22;7678;50.058;8.306;2022-10-03T09:57:14;13.30;99.90
15156;DHT22;7678;50.058;8.306;2022-10-03T10:03:35;13.10;99.90
15156;DHT22;7678;50.058;8.306;2022-10-03T10:09:38;13.10;99.90
15156;DHT22;7678;50.058;8.306;2022-10-03T10:18:37;13.30;99.90
15156;DHT22;7678;50.058;8.306;2022-10-03T10:27:52;14.20;99.90
15156;DHT22;7678;50.058;8.306;2022-10-03T10:37:22;13.90;99.90
15156;DHT22;7678;50.058;8.306;2022-10-03T10:43:27;13.50;99.90
15156;DHT22;7678;50.058;8.306;2022-10-03T11:38:38;13.80;99.90
15156;DHT22;7678;50.058;8.306;2022-10-03T11:41:45;13.90;99.90
15156;DHT22;7678;50.058;8.306;2022-10-03T11:47:48;14.00;99.90
15156;DHT22;7678;50.058;8.306;2022-10-03T11:50:41;14.10;99.90
15156;DHT22;7678;50.058;8.306;2022-10-03T11:56:18;14.20;99.90
15156;DHT22;7678;50.058;8.306;2022-10-03T12:02:29;14.70;99.90
15156;DHT22;7678;50.058;8.306;2022-10-03T12:05:10;14.90;99.90
15156;DHT22;7678;50.058;8.306;2022-10-03T12:07:46;15.40;99.90
15156;DHT22;7678;50.058;8.306;2022-10-03T12:10:48;15.50;99.90
15156;DHT22;7678;50.058;8.306;2022-10-03T12:13:30;15.70;99.90
15156;DHT22;7678;50.058;8.306;2022-10-03T12:16:05;15.80;99.90
15156;DHT22;7678;50.058;8.306;2022-10-03T12:18:52;15.90;99.90
15156;DHT22;7678;50.058;8.306;2022-10-03T12:21:32;15.90;99.90
15156;DHT22;7678;50.058;8.306;2022-10-03T12:24:22;15.80;99.90
15156;DHT22;7678;50.058;8.306;2022-10-03T12:26:58;16.10;99.90
15156;DHT22;7678;50.058;8.306;2022-10-03T12:29:38;16.20;99.90
15156;DHT22;7678;50.058;8.306;2022-10-03T12:32:25;16.30;99.90
15156;DHT22;7678;50.058;8.306;2022-10-03T12:35:06;16.10;99.90
15156;DHT22;7678;50.058;8.306;2022-10-03T12:37:49;16.30;99.90
15156;DHT22;7678;50.058;8.306;2022-10-03T12:40:28;16.50;99.90
15156;DHT22;7678;50.058;8.306;2022-10-03T12:43:06;16.30;99.90
15156;DHT22;7678;50.058;8.306;2022-10-03T12:49:16;16.50;99.90
15156;DHT22;7678;50.058;8.306;2022-10-03T12:51:53;16.40;97.80
15156;DHT22;7678;50.058;8.306;2022-10-03T12:54:37;16.10;99.30
15156;DHT22;7678;50.058;8.306;2022-10-03T12:57:44;15.80;99.70
15156;DHT22;7678;50.058;8.306;2022-10-03T13:00:18;15.70;99.90
15156;DHT22;7678;50.058;8.306;2022-10-03T13:03:06;15.70;99.90
15156;DHT22;7678;50.058;8.306;2022-10-03T13:08:41;15.80;99.90
15156;DHT22;7678;50.058;8.306;2022-10-03T13:11:24;16.00;99.90
15156;DHT22;7678;50.058;8.306;2022-10-03T13:14:10;16.00;98.50
15156;DHT22;7678;50.058;8.306;2022-10-03T13:16:53;15.90;99.60
15156;DHT22;7678;50.058;8.306;2022-10-03T13:19:27;16.00;99.90
15156;DHT22;7678;50.058;8.306;2022-10-03T13:22:17;16.20;99.90
15156;DHT22;7678;50.058;8.306;2022-10-03T13:24:54;16.50;99.90
15156;DHT22;7678;50.058;8.306;2022-10-03T13:27:36;16.80;98.00
15156;DHT22;7678;50.058;8.306;2022-10-03T13:30:19;16.50;96.00
15156;DHT22;7678;50.058;8.306;2022-10-03T13:32:51;16.50;97.20
15156;DHT22;7678;50.058;8.306;2022-10-03T13:35:33;16.40;99.00
15156;DHT22;7678;50.058;8.306;2022-10-03T13:38:43;16.40;99.40
15156;DHT22;7678;50.058;8.306;2022-10-03T13:41:25;16.20;99.50
15156;DHT22;7678;50.058;8.306;2022-10-03T13:43:58;16.00;99.90
15156;DHT22;7678;50.058;8.306;2022-10-03T13:46:38;15.80;99.90
15156;DHT22;7678;50.058;8.306;2022-10-03T13:49:15;15.90;99.90
15156;DHT22;7678;50.058;8.306;2022-10-03T13:51:50;15.80;99.90
15156;DHT22;7678;50.058;8.306;2022-10-03T13:57:33;15.90;99.90
15156;DHT22;7678;50.058;8.306;2022-10-03T14:00:06;15.80;99.90
15156;DHT22;7678;50.058;8.306;2022-10-03T14:02:56;15.80;99.90
15156;DHT22;7678;50.058;8.306;2022-10-03T14:08:34;15.60;99.90
15156;DHT22;7678;50.058;8.306;2022-10-03T14:17:13;15.60;99.90
15156;DHT22;7678;50.058;8.306;2022-10-03T14:19:57;15.60;99.90
15156;DHT22;7678;50.058;8.306;2022-10-03T14:22:42;15.60;99.90
15156;DHT22;7678;50.058;8.306;2022-10-03T14:25:22;15.70;99.90
15156;DHT22;7678;50.058;8.306;2022-10-03T14:28:01;15.80;99.90
15156;DHT22;7678;50.058;8.306;2022-10-03T14:30:41;15.80;99.90
15156;DHT22;7678;50.058;8.306;2022-10-03T14:33:36;15.80;99.90
15156;DHT22;7678;50.058;8.306;2022-10-03T14:36:18;15.90;99.90
15156;DHT22;7678;50.058;8.306;2022-10-03T14:39:02;15.90;99.90
15156;DHT22;7678;50.058;8.306;2022-10-03T14:41:44;15.60;99.90
15156;DHT22;7678;50.058;8.306;2022-10-03T14:44:22;15.60;99.90
15156;DHT22;7678;50.058;8.306;2022-10-03T14:46:58;15.60;99.90
15156;DHT22;7678;50.058;8.306;2022-10-03T14:49:34;15.60;99.90
15156;DHT22;7678;50.058;8.306;2022-10-03T14:52:29;15.70;99.90
15156;DHT22;7678;50.058;8.306;2022-10-03T14:55:10;15.70;99.90
15156;DHT22;7678;50.058;8.306;2022-10-03T14:57:44;15.70;99.90
15156;DHT22;7678;50.058;8.306;2022-10-03T15:00:38;15.80;99.90
15156;DHT22;7678;50.058;8.306;2022-10-03T15:03:31;16.00;99.90
15156;DHT22;7678;50.058;8.306;2022-10-03T15:06:34;15.90;99.90
15156;DHT22;7678;50.058;8.306;2022-10-03T15:09:08;16.00;99.90
15156;DHT22;7678;50.058;8.306;2022-10-03T15:11:46;15.80;99.90
15156;DHT22;7678;50.058;8.306;2022-10-03T15:14:15;15.80;99.90
15156;DHT22;7678;50.058;8.306;2022-10-03T15:16:46;16.10;99.90
15156;DHT22;7678;50.058;8.306;2022-10-03T15:19:20;16.00;99.90
15156;DHT22;7678;50.058;8.306;2022-10-03T15:21:52;15.90;99.90
15156;DHT22;7678;50.058;8.306;2022-10-03T15:24:26;15.80;99.90
15156;DHT22;7678;50.058;8.306;2022-10-03T15:26:59;15.80;99.90
15156;DHT22;7678;50.058;8.306;2022-10-03T15:29:28;15.70;99.90
15156;DHT22;7678;50.058;8.306;2022-10-03T15:31:58;15.60;99.90
15156;DHT22;7678;50.058;8.306;2022-10-03T15:34:31;15.50;99.90
15156;DHT22;7678;50.058;8.306;2022-10-03T15:37:05;15.60;99.90
15156;DHT22;7678;50.058;8.306;2022-10-03T15:39:38;15.50;99.90
15156;DHT22;7678;50.058;8.306;2022-10-03T15:42:20;15.30;99.90
15156;DHT22;7678;50.058;8.306;2022-10-03T15:44:51;15.20;99.90
15156;DHT22;7678;50.058;8.306;2022-10-03T15:47:22;15.10;99.90
15156;DHT22;7678;50.058;8.306;2022-10-03T15:49:56;15.10;99.90
15156;DHT22;7678;50.058;8.306;2022-10-03T15:52:31;15.10;99.90
15156;DHT22;7678;50.058;8.306;2022-10-03T15:55:04;15.00;99.90
15156;DHT22;7678;50.058;8.306;2022-10-03T15:57:43;15.00;99.90
15156;DHT22;7678;50.058;8.306;2022-10-03T16:00:20;15.00;99.90
15156;DHT22;7678;50.058;8.306;2022-10-03T16:02:57;15.10;99.90
15156;DHT22;7678;50.058;8.306;2022-10-03T16:05:29;15.00;99.90
15156;DHT22;7678;50.058;8.306;2022-10-03T16:08:01;14.90;99.90
15156;DHT22;7678;50.058;8.306;2022-10-03T16:10:39;14.90;99.90
15156;DHT22;7678;50.058;8.306;2022-10-03T16:13:20;14.90;99.90
15156;DHT22;7678;50.058;8.306;2022-10-03T16:16:03;14.80;99.90
15156;DHT22;7678;50.058;8.306;2022-10-03T16:18:45;14.80;99.90
15156;DHT22;7678;50.058;8.306;2022-10-03T16:21:28;14.80;99.90
15156;DHT22;7678;50.058;8.306;2022-10-03T16:24:00;14.80;99.90
15156;DHT22;7678;50.058;8.306;2022-10-03T16:26:30;14.80;99.90
15156;DHT22;7678;50.058;8.306;2022-10-03T16:29:06;14.70;99.90
15156;DHT22;7678;50.058;8.306;2022-10-03T16:31:40;14.60;99.90
15156;DHT22;7678;50.058;8.306;2022-10-03T16:34:13;14.60;99.90
15156;DHT22;7678;50.058;8.306;2022-10-03T16:36:45;14.50;99.90
15156;DHT22;7678;50.058;8.306;2022-10-03T16:39:19;14.50;99.90
15156;DHT22;7678;50.058;8.306;2022-10-03T16:41:51;14.40;99.90
15156;DHT22;7678;50.058;8.306;2022-10-03T16:44:27;14.30;99.90
15156;DHT22;7678;50.058;8.306;2022-10-03T16:47:00;14.20;99.90
15156;DHT22;7678;50.058;8.306;2022-10-03T16:49:39;14.10;99.90
15156;DHT22;7678;50.058;8.306;2022-10-03T16:52:31;14.00;99.90
15156;DHT22;7678;50.058;8.306;2022-10-03T16:55:03;13.90;99.90
15156;DHT22;7678;50.058;8.306;2022-10-03T16:57:40;13.80;99.90
15156;DHT22;7678;50.058;8.306;2022-10-03T17:00:16;13.80;99.90
15156;DHT22;7678;50.058;8.306;2022-10-03T17:02:45;13.70;99.90
15156;DHT22;7678;50.058;8.306;2022-10-03T17:05:15;13.70;99.90
15156;DHT22;7678;50.058;8.306;2022-10-03T17:07:47;13.60;99.90
15156;DHT22;7678;50.058;8.306;2022-10-03T17:10:29;13.50;99.90
15156;DHT22;7678;50.058;8.306;2022-10-03T17:13:02;13.40;99.90
15156;DHT22;7678;50.058;8.306;2022-10-03T17:15:34;13.40;99.90
15156;DHT22;7678;50.058;8.306;2022-10-03T17:18:14;13.40;99.90
15156;DHT22;7678;50.058;8.306;2022-10-03T17:20:54;13.30;99.90
15156;DHT22;7678;50.058;8.306;2022-10-03T17:23:30;13.20;99.90
15156;DHT22;7678;50.058;8.306;2022-10-03T17:26:05;13.20;99.90
15156;DHT22;7678;50.058;8.306;2022-10-03T17:28:39;13.00;99.90
15156;DHT22;7678;50.058;8.306;2022-10-03T17:31:23;12.90;99.90
15156;DHT22;7678;50.058;8.306;2022-10-03T17:34:00;12.80;99.90
15156;DHT22;7678;50.058;8.306;2022-10-03T17:36:49;12.70;99.90
15156;DHT22;7678;50.058;8.306;2022-10-03T17:39:37;12.80;99.90
15156;DHT22;7678;50.058;8.306;2022-10-03T17:42:16;12.60;99.90
15156;DHT22;7678;50.058;8.306;2022-10-03T17:44:55;12.50;99.90
15156;DHT22;7678;50.058;8.306;2022-10-03T17:47:32;12.30;99.90
15156;DHT22;7678;50.058;8.306;2022-10-03T17:50:10;12.40;99.90
15156;DHT22;7678;50.058;8.306;2022-10-03T17:52:43;12.30;99.90
15156;DHT22;7678;50.058;8.306;2022-10-03T17:55:19;12.10;99.90
15156;DHT22;7678;50.058;8.306;2022-10-03T17:57:51;12.10;99.90
15156;DHT22;7678;50.058;8.306;2022-10-03T18:00:22;12.00;99.90
15156;DHT22;7678;50.058;8.306;2022-10-03T18:02:56;12.00;99.90
15156;DHT22;7678;50.058;8.306;2022-10-03T18:05:28;12.00;99.90
15156;DHT22;7678;50.058;8.306;2022-10-03T18:08:01;11.80;99.90
15156;DHT22;7678;50.058;8.306;2022-10-03T18:10:36;11.80;99.90
15156;DHT22;7678;50.058;8.306;2022-10-03T18:13:13;11.80;99.90
15156;DHT22;7678;50.058;8.306;2022-10-03T18:16:12;11.70;99.90
15156;DHT22;7678;50.058;8.306;2022-10-03T18:19:02;11.70;99.90
15156;DHT22;7678;50.058;8.306;2022-10-03T18:21:38;11.50;99.90
15156;DHT22;7678;50.058;8.306;2022-10-03T18:24:21;11.40;99.90
15156;DHT22;7678;50.058;8.306;2022-10-03T18:27:02;11.10;99.90
15156;DHT22;7678;50.058;8.306;2022-10-03T18:29:34;11.00;99.90
15156;DHT22;7678;50.058;8.306;2022-10-03T18:32:11;11.10;99.90
15156;DHT22;7678;50.058;8.306;2022-10-03T18:34:43;11.10;99.90
15156;DHT22;7678;50.058;8.306;2022-10-03T18:37:53;11.20;99.90
15156;DHT22;7678;50.058;8.306;2022-10-03T18:40:28;11.20;99.90
15156;DHT22;7678;50.058;8.306;2022-10-03T18:43:25;11.20;99.90
15156;DHT22;7678;50.058;8.306;2022-10-03T18:46:00;11.00;99.90
15156;DHT22;7678;50.058;8.306;2022-10-03T18:48:34;10.90;99.90
15156;DHT22;7678;50.058;8.306;2022-10-03T18:51:10;10.90;99.90
15156;DHT22;7678;50.058;8.306;2022-10-03T18:53:45;10.80;99.90
15156;DHT22;7678;50.058;8.306;2022-10-03T18:56:22;10.70;99.90
15156;DHT22;7678;50.058;8.306;2022-10-03T18:59:18;10.60;99.90
15156;DHT22;7678;50.058;8.306;2022-10-03T19:01:52;10.50;99.90
15156;DHT22;7678;50.058;8.306;2022-10-03T19:04:35;10.60;99.90
15156;DHT22;7678;50.058;8.306;2022-10-03T19:07:16;10.50;99.90
15156;DHT22;7678;50.058;8.306;2022-10-03T19:12:49;10.60;99.90
15156;DHT22;7678;50.058;8.306;2022-10-03T19:15:29;10.50;99.90
15156;DHT22;7678;50.058;8.306;2022-10-03T19:18:20;10.40;99.90
15156;DHT22;7678;50.058;8.306;2022-10-03T19:20:56;10.40;99.90
15156;DHT22;7678;50.058;8.306;2022-10-03T19:23:30;10.40;99.90
15156;DHT22;7678;50.058;8.306;2022-10-03T19:26:07;10.30;99.90
15156;DHT22;7678;50.058;8.306;2022-10-03T19:28:48;10.10;99.90
15156;DHT22;7678;50.058;8.306;2022-10-03T19:31:23;9.90;99.90
15156;DHT22;7678;50.058;8.306;2022-10-03T19:33:57;10.00;99.90
15156;DHT22;7678;50.058;8.306;2022-10-03T19:36:29;10.20;99.90
15156;DHT22;7678;50.058;8.306;2022-10-03T19:38:58;10.10;99.90
15156;DHT22;7678;50.058;8.306;2022-10-03T19:41:41;10.00;99.90
15156;DHT22;7678;50.058;8.306;2022-10-03T19:44:19;10.00;99.90
15156;DHT22;7678;50.058;8.306;2022-10-03T19:47:04;10.00;99.90
15156;DHT22;7678;50.058;8.306;2022-10-03T19:49:49;9.90;99.90
15156;DHT22;7678;50.058;8.306;2022-10-03T19:52:24;9.90;99.90
15156;DHT22;7678;50.058;8.306;2022-10-03T19:54:58;9.90;99.90
15156;DHT22;7678;50.058;8.306;2022-10-03T19:57:39;9.70;99.90
15156;DHT22;7678;50.058;8.306;2022-10-03T20:00:21;9.60;99.90
15156;DHT22;7678;50.058;8.306;2022-10-03T20:02:55;9.60;99.90
15156;DHT22;7678;50.058;8.306;2022-10-03T20:05:30;9.50;99.90
15156;DHT22;7678;50.058;8.306;2022-10-03T20:08:02;9.40;99.90
15156;DHT22;7678;50.058;8.306;2022-10-03T20:10:46;9.50;99.90
15156;DHT22;7678;50.058;8.306;2022-10-03T20:13:18;9.40;99.90
15156;DHT22;7678;50.058;8.306;2022-10-03T20:15:48;9.40;99.90
15156;DHT22;7678;50.058;8.306;2022-10-03T20:18:22;9.50;99.90
15156;DHT22;7678;50.058;8.306;2022-10-03T20:20:56;9.40;99.90
15156;DHT22;7678;50.058;8.306;2022-10-03T20:23:26;9.30;99.90
15156;DHT22;7678;50.058;8.306;2022-10-03T20:25:59;9.40;99.90
15156;DHT22;7678;50.058;8.306;2022-10-03T20:28:46;9.40;99.90
15156;DHT22;7678;50.058;8.306;2022-10-03T20:31:23;9.50;99.90
15156;DHT22;7678;50.058;8.306;2022-10-03T20:33:53;9.30;99.90
15156;DHT22;7678;50.058;8.306;2022-10-03T20:36:24;9.20;99.90
15156;DHT22;7678;50.058;8.306;2022-10-03T20:39:03;9.10;99.90
15156;DHT22;7678;50.058;8.306;2022-10-03T20:41:41;9.10;99.90
15156;DHT22;7678;50.058;8.306;2022-10-03T20:44:16;9.10;99.90
15156;DHT22;7678;50.058;8.306;2022-10-03T20:46:50;9.20;99.90
15156;DHT22;7678;50.058;8.306;2022-10-03T20:49:29;9.20;99.90
15156;DHT22;7678;50.058;8.306;2022-10-03T20:52:00;9.10;99.90
15156;DHT22;7678;50.058;8.306;2022-10-03T20:54:33;9.00;99.90
15156;DHT22;7678;50.058;8.306;2022-10-03T20:57:05;8.90;99.90
15156;DHT22;7678;50.058;8.306;2022-10-03T20:59:43;9.20;99.90
15156;DHT22;7678;50.058;8.306;2022-10-03T21:02:23;9.10;99.90
15156;DHT22;7678;50.058;8.306;2022-10-03T21:04:57;9.00;99.90
15156;DHT22;7678;50.058;8.306;2022-10-03T21:07:33;9.00;99.90
15156;DHT22;7678;50.058;8.306;2022-10-03T21:10:16;8.90;99.90
15156;DHT22;7678;50.058;8.306;2022-10-03T21:12:47;8.90;99.90
15156;DHT22;7678;50.058;8.306;2022-10-03T21:15:24;8.90;99.90
15156;DHT22;7678;50.058;8.306;2022-10-03T21:17:57;8.90;99.90
15156;DHT22;7678;50.058;8.306;2022-10-03T21:20:33;8.70;99.90
15156;DHT22;7678;50.058;8.306;2022-10-03T21:23:10;8.60;99.90
15156;DHT22;7678;50.058;8.306;2022-10-03T21:25:41;8.60;99.90
15156;DHT22;7678;50.058;8.306;2022-10-03T21:28:23;8.60;99.90
15156;DHT22;7678;50.058;8.306;2022-10-03T21:31:17;8.50;99.90
15156;DHT22;7678;50.058;8.306;2022-10-03T21:33:56;8.70;99.90
15156;DHT22;7678;50.058;8.306;2022-10-03T21:36:32;8.90;99.90
15156;DHT22;7678;50.058;8.306;2022-10-03T21:39:10;8.60;99.90
15156;DHT22;7678;50.058;8.306;2022-10-03T21:41:50;8.60;99.90
15156;DHT22;7678;50.058;8.306;2022-10-03T21:44:33;8.70;99.90
15156;DHT22;7678;50.058;8.306;2022-10-03T21:47:09;8.60;99.90
15156;DHT22;7678;50.058;8.306;2022-10-03T21:49:51;8.70;99.90
15156;DHT22;7678;50.058;8.306;2022-10-03T21:52:42;8.50;99.90
15156;DHT22;7678;50.058;8.306;2022-10-03T21:55:40;8.40;99.90
15156;DHT22;7678;50.058;8.306;2022-10-03T21:58:40;8.60;99.90
15156;DHT22;7678;50.058;8.306;2022-10-03T22:01:14;8.50;99.90
15156;DHT22;7678;50.058;8.306;2022-10-03T22:03:48;8.50;99.90
15156;DHT22;7678;50.058;8.306;2022-10-03T22:06:20;8.30;99.90
15156;DHT22;7678;50.058;8.306;2022-10-03T22:08:52;8.30;99.90
15156;DHT22;7678;50.058;8.306;2022-10-03T22:11:32;8.40;99.90
15156;DHT22;7678;50.058;8.306;2022-10-03T22:14:09;8.30;99.90
15156;DHT22;7678;50.058;8.306;2022-10-03T22:16:47;8.30;99.90
15156;DHT22;7678;50.058;8.306;2022-10-03T22:19:21;8.20;99.90
15156;DHT22;7678;50.058;8.306;2022-10-03T22:22:07;8.30;99.90
15156;DHT22;7678;50.058;8.306;2022-10-03T22:24:47;8.40;99.90
15156;DHT22;7678;50.058;8.306;2022-10-03T22:27:23;8.40;99.90
15156;DHT22;7678;50.058;8.306;2022-10-03T22:30:00;8.30;99.90
15156;DHT22;7678;50.058;8.306;2022-10-03T22:32:35;8.40;99.90
15156;DHT22;7678;50.058;8.306;2022-10-03T22:35:19;8.30;99.90
15156;DHT22;7678;50.058;8.306;2022-10-03T22:37:50;8.30;99.90
15156;DHT22;7678;50.058;8.306;2022-10-03T22:40:20;8.30;99.90
15156;DHT22;7678;50.058;8.306;2022-10-03T22:42:53;8.10;99.90
15156;DHT22;7678;50.058;8.306;2022-10-03T22:45:24;8.20;99.90
15156;DHT22;7678;50.058;8.306;2022-10-03T22:47:56;8.10;99.90
15156;DHT22;7678;50.058;8.306;2022-10-03T22:50:27;8.10;99.90
15156;DHT22;7678;50.058;8.306;2022-10-03T22:52:58;7.90;99.90
15156;DHT22;7678;50.058;8.306;2022-10-03T22:55:29;7.80;99.90
15156;DHT22;7678;50.058;8.306;2022-10-03T22:57:59;7.70;99.90
15156;DHT22;7678;50.058;8.306;2022-10-03T23:00:29;7.80;99.90
15156;DHT22;7678;50.058;8.306;2022-10-03T23:03:04;7.80;99.90
15156;DHT22;7678;50.058;8.306;2022-10-03T23:08:46;7.80;99.90
15156;DHT22;7678;50.058;8.306;2022-10-03T23:11:22;7.80;99.90
15156;DHT22;7678;50.058;8.306;2022-10-03T23:13:50;7.70;99.90
15156;DHT22;7678;50.058;8.306;2022-10-03T23:16:39;7.70;99.90
15156;DHT22;7678;50.058;8.306;2022-10-03T23:19:17;7.70;99.90
15156;DHT22;7678;50.058;8.306;2022-10-03T23:21:49;7.60;99.90
15156;DHT22;7678;50.058;8.306;2022-10-03T23:24:24;7.70;99.90
15156;DHT22;7678;50.058;8.306;2022-10-03T23:27:24;7.60;99.90
15156;DHT22;7678;50.058;8.306;2022-10-03T23:33:14;7.40;99.90
15156;DHT22;7678;50.058;8.306;2022-10-03T23:35:42;7.50;99.90
15156;DHT22;7678;50.058;8.306;2022-10-03T23:44:44;7.50;99.90
15156;DHT22;7678;50.058;8.306;2022-10-03T23:47:18;7.40;99.90
15156;DHT22;7678;50.058;8.306;2022-10-03T23:49:47;7.60;99.90
15156;DHT22;7678;50.058;8.306;2022-10-03T23:52:21;7.60;99.90
15156;DHT22;7678;50.058;8.306;2022-10-03T23:54:51;7.60;99.90
15156;DHT22;7678;50.058;8.306;2022-10-03T23:57:22;7.50;99.90
15156;DHT22;7678;50.058;8.306;2022-10-03T23:59:53;7.50;99.90
